Time;durP1;ratioP1;P1;durP2;ratioP2;P2;SDS_P1;SDS_P2;PMS_P1;PMS_P2;Temp;Humidity;BMP_temperature;BMP_pressure;BME280_temperature;BME280_humidity;BME280_pressure;Samples;Min_cycle;Max_cycle;Signal;HPM_P1;HPM_P2
2021/09/28 00:02:02;;;;;;;11.73;2.30;;;;;;;14.14;100.00;101413.25;5094596;28;20042;-69
2021/09/28 00:04:28;;;;;;;8.80;2.27;;;;;;;14.11;100.00;101430.53;5093220;28;20032;-69
2021/09/28 00:06:53;;;;;;;11.93;2.47;;;;;;;14.09;100.00;101445.16;5059629;28;20360;-69
2021/09/28 00:09:19;;;;;;;14.40;3.07;;;;;;;14.09;100.00;101437.97;5094220;28;20032;-69
2021/09/28 00:11:49;;;;;;;16.40;3.13;;;;;;;14.15;100.00;101460.59;5094512;28;20028;-69
2021/09/28 00:14:17;;;;;;;12.40;1.48;;;;;;;14.17;100.00;101455.06;5093510;28;20046;-69
2021/09/28 00:16:43;;;;;;;14.95;2.72;;;;;;;14.22;100.00;101453.53;5090614;28;20024;-69
2021/09/28 00:19:08;;;;;;;11.20;1.83;;;;;;;14.14;100.00;101457.09;5090975;28;20043;-69
2021/09/28 00:21:33;;;;;;;15.00;2.23;;;;;;;14.08;100.00;101467.66;5090961;28;20040;-68
2021/09/28 00:23:59;;;;;;;15.87;2.47;;;;;;;14.21;100.00;101473.38;5091103;28;20036;-69
2021/09/28 00:26:24;;;;;;;11.30;2.53;;;;;;;14.21;100.00;101451.88;5090886;28;20495;-69
2021/09/28 00:28:50;;;;;;;15.97;2.63;;;;;;;14.18;100.00;101462.09;5090719;28;20465;-69
2021/09/28 00:31:15;;;;;;;10.00;2.40;;;;;;;14.10;100.00;101473.69;5091143;28;20102;-69
2021/09/28 00:33:41;;;;;;;14.10;2.60;;;;;;;14.01;100.00;101485.44;5091038;28;20032;-69
2021/09/28 00:36:06;;;;;;;17.25;2.30;;;;;;;14.08;100.00;101507.94;5090503;28;20039;-69
2021/09/28 00:38:32;;;;;;;16.03;3.30;;;;;;;13.97;100.00;101505.56;5090970;28;20049;-69
2021/09/28 00:40:58;;;;;;;16.20;2.40;;;;;;;14.02;100.00;101508.59;5089415;28;20028;-69
2021/09/28 00:43:23;;;;;;;15.98;2.63;;;;;;;13.95;100.00;101516.44;5089912;28;20032;-69
2021/09/28 00:45:49;;;;;;;12.60;2.53;;;;;;;14.01;100.00;101521.16;5090529;28;20035;-69
2021/09/28 00:48:14;;;;;;;14.77;2.30;;;;;;;13.91;100.00;101515.97;5090763;28;20039;-69
2021/09/28 00:50:40;;;;;;;21.83;4.33;;;;;;;13.88;100.00;101516.31;5072386;28;21104;-69
2021/09/28 00:53:08;;;;;;;16.13;3.45;;;;;;;13.83;100.00;101515.94;5072889;28;20071;-69
2021/09/28 00:55:33;;;;;;;20.67;3.88;;;;;;;13.64;100.00;101513.56;5072468;28;20047;-69
2021/09/28 00:58:02;;;;;;;14.07;3.20;;;;;;;13.57;100.00;101517.91;5072805;28;20049;-68
2021/09/28 01:00:30;;;;;;;15.52;2.72;;;;;;;13.54;100.00;101535.16;5090061;28;20078;-69
2021/09/28 01:02:57;;;;;;;21.13;3.47;;;;;;;13.46;100.00;101537.81;5090372;28;20032;-69
2021/09/28 01:05:22;;;;;;;12.85;2.30;;;;;;;13.42;100.00;101542.66;5088410;28;20153;-69
2021/09/28 01:07:47;;;;;;;13.37;2.03;;;;;;;13.47;100.00;101544.88;5072509;28;20349;-69
2021/09/28 01:10:13;;;;;;;15.63;2.00;;;;;;;13.48;100.00;101544.69;5089622;28;20119;-69
2021/09/28 01:12:39;;;;;;;26.02;3.00;;;;;;;13.43;100.00;101544.34;5090317;28;20114;-69
2021/09/28 01:15:05;;;;;;;16.00;2.93;;;;;;;13.31;100.00;101551.00;5088910;28;20114;-69
2021/09/28 01:17:30;;;;;;;17.92;2.20;;;;;;;13.30;100.00;101544.78;5072222;28;20441;-69
2021/09/28 01:19:56;;;;;;;16.97;2.57;;;;;;;13.25;100.00;101552.47;5071882;28;20020;-69
2021/09/28 01:22:21;;;;;;;14.73;2.42;;;;;;;13.24;100.00;101555.28;5089097;28;20032;-69
2021/09/28 01:24:48;;;;;;;14.13;2.03;;;;;;;13.21;100.00;101561.81;5072007;28;20081;-69
2021/09/28 01:27:14;;;;;;;15.50;2.28;;;;;;;13.19;100.00;101563.81;5089594;28;20032;-69
2021/09/28 01:29:40;;;;;;;18.17;1.98;;;;;;;13.14;100.00;101565.31;5071738;28;20027;-69
2021/09/28 01:32:06;;;;;;;14.32;2.50;;;;;;;12.99;100.00;101571.22;5071933;28;20032;-69
2021/09/28 01:34:32;;;;;;;21.95;3.55;;;;;;;13.00;100.00;101575.59;5071926;28;20067;-69
2021/09/28 01:36:57;;;;;;;16.83;2.53;;;;;;;12.95;100.00;101577.91;5089526;28;20035;-69
2021/09/28 01:39:23;;;;;;;12.00;1.83;;;;;;;12.96;100.00;101579.59;5089336;28;20070;-69
2021/09/28 01:41:49;;;;;;;11.32;3.53;;;;;;;12.88;100.00;101575.03;5088643;28;20032;-69
2021/09/28 01:44:16;;;;;;;;;;;;;;;12.84;100.00;101579.00;5090022;28;20085;-69
2021/09/28 01:46:44;;;;;;;21.98;2.78;;;;;;;12.78;100.00;101584.16;5088427;28;20242;-69
2021/09/28 01:49:11;;;;;;;17.50;1.92;;;;;;;12.73;100.00;101586.47;5071299;28;20471;-69
2021/09/28 01:51:37;;;;;;;14.82;2.00;;;;;;;12.70;100.00;101589.47;5088473;28;20053;-69
2021/09/28 01:54:03;;;;;;;;;;;;;;;12.62;100.00;101592.94;5089772;28;20036;-69
2021/09/28 01:56:28;;;;;;;;;;;;;;;12.59;100.00;101604.78;5088764;28;19939;-69
2021/09/28 01:58:55;;;;;;;;;;;;;;;12.54;100.00;101601.72;5088733;28;19919;-69
2021/09/28 02:01:21;;;;;;;13.23;2.03;;;;;;;12.52;100.00;101603.72;5088229;28;20041;-69
2021/09/28 02:03:46;;;;;;;10.80;2.65;;;;;;;12.40;100.00;101605.78;5088142;28;20047;-69
2021/09/28 02:06:13;;;;;;;18.13;3.50;;;;;;;12.38;100.00;101609.59;5070705;28;20051;-69
2021/09/28 02:08:39;;;;;;;20.25;2.47;;;;;;;12.35;100.00;101612.59;5088821;28;20039;-69
2021/09/28 02:11:04;;;;;;;15.13;3.70;;;;;;;12.35;100.00;101609.94;5088503;28;20437;-69
2021/09/28 02:13:30;;;;;;;15.25;3.08;;;;;;;12.27;100.00;101615.19;5089178;28;20051;-69
2021/09/28 02:15:55;;;;;;;8.47;1.93;;;;;;;12.33;100.00;101614.59;5088923;28;20028;-69
2021/09/28 02:18:21;;;;;;;21.47;2.87;;;;;;;12.31;100.00;101616.56;5071158;28;20040;-69
2021/09/28 02:20:46;;;;;;;17.03;1.90;;;;;;;12.31;100.00;101620.09;5088658;28;20385;-69
2021/09/28 02:23:12;;;;;;;11.65;2.25;;;;;;;12.23;100.00;101628.88;5087860;28;20035;-69
2021/09/28 02:25:37;;;;;;;12.47;2.17;;;;;;;12.14;100.00;101620.94;5087767;28;20123;-69
2021/09/28 02:28:03;;;;;;;19.50;1.80;;;;;;;12.06;100.00;101629.72;5087773;28;20123;-69
2021/09/28 02:30:28;;;;;;;11.90;2.40;;;;;;;11.95;100.00;101630.75;5087674;28;20135;-69
2021/09/28 02:32:54;;;;;;;14.27;2.40;;;;;;;11.94;100.00;101636.25;5088741;28;20043;-69
2021/09/28 02:35:19;;;;;;;15.60;3.55;;;;;;;11.92;100.00;101633.75;5087606;28;20096;-69
2021/09/28 02:37:45;;;;;;;10.43;1.93;;;;;;;11.97;100.00;101633.28;5088007;28;20043;-69
2021/09/28 02:40:11;;;;;;;18.13;2.15;;;;;;;11.91;100.00;101644.59;5070630;28;20897;-69
2021/09/28 02:42:36;;;;;;;12.98;3.00;;;;;;;11.82;100.00;101641.78;5088648;28;20035;-69
2021/09/28 02:45:06;;;;;;;14.48;2.10;;;;;;;11.74;100.00;101636.34;5070906;28;20051;-69
2021/09/28 02:47:32;;;;;;;12.65;2.70;;;;;;;11.75;100.00;101642.53;5070811;28;20058;-69
2021/09/28 02:49:58;;;;;;;12.73;1.90;;;;;;;11.67;100.00;101640.59;5088382;28;20356;-69
2021/09/28 02:52:23;;;;;;;23.70;3.70;;;;;;;11.66;100.00;101644.28;5088475;28;20106;-69
2021/09/28 02:54:49;;;;;;;16.23;2.28;;;;;;;11.60;100.00;101640.34;5088301;28;20142;-68
2021/09/28 02:57:15;;;;;;;17.80;2.92;;;;;;;11.57;100.00;101651.34;5087399;28;20028;-69
2021/09/28 02:59:40;;;;;;;15.43;2.57;;;;;;;11.61;100.00;101651.88;5070528;28;20097;-69
2021/09/28 03:02:06;;;;;;;13.53;2.17;;;;;;;11.48;100.00;101644.19;5087572;28;20381;-68
2021/09/28 03:04:32;;;;;;;13.27;3.00;;;;;;;11.49;100.00;101651.22;5087600;28;20032;-69
2021/09/28 03:06:58;;;;;;;14.73;2.55;;;;;;;11.41;100.00;101646.59;5070622;28;20051;-68
2021/09/28 03:09:23;;;;;;;10.90;1.83;;;;;;;11.36;100.00;101648.88;5069985;28;20040;-69
2021/09/28 03:11:49;;;;;;;13.50;2.27;;;;;;;11.31;100.00;101655.66;5087357;28;20313;-69
2021/09/28 03:14:14;;;;;;;14.17;2.20;;;;;;;11.24;100.00;101650.03;5070365;28;20047;-69
2021/09/28 03:16:40;;;;;;;14.60;1.83;;;;;;;11.26;100.00;101656.09;5087271;28;20069;-69
2021/09/28 03:19:05;;;;;;;21.97;2.73;;;;;;;11.30;100.00;101659.31;5088015;28;20058;-69
2021/09/28 03:21:31;;;;;;;13.93;2.10;;;;;;;11.20;100.00;101662.00;5088101;28;20028;-69
2021/09/28 03:23:56;;;;;;;13.60;2.63;;;;;;;11.12;100.00;101656.53;5088203;28;20529;-69
2021/09/28 03:26:22;;;;;;;14.20;2.33;;;;;;;11.12;100.00;101661.88;5088024;28;20285;-68
2021/09/28 03:28:47;;;;;;;12.20;2.15;;;;;;;11.07;100.00;101654.28;5086892;28;20047;-69
2021/09/28 03:31:13;;;;;;;15.20;1.83;;;;;;;10.99;100.00;101657.69;5088248;28;20024;-69
2021/09/28 03:33:38;;;;;;;11.03;2.07;;;;;;;10.94;100.00;101662.63;5087150;28;20046;-69
2021/09/28 03:36:04;;;;;;;12.77;2.50;;;;;;;10.96;100.00;101667.81;5086846;28;20024;-68
2021/09/28 03:38:30;;;;;;;13.48;2.92;;;;;;;10.85;100.00;101674.16;5087116;28;20024;-69
2021/09/28 03:40:56;;;;;;;13.13;1.73;;;;;;;10.78;100.00;101673.88;5087840;28;20575;-68
2021/09/28 03:43:21;;;;;;;12.43;2.08;;;;;;;10.72;100.00;101677.13;5087982;28;20536;-68
2021/09/28 03:45:47;;;;;;;24.33;2.67;;;;;;;10.67;100.00;101681.19;5087975;28;20051;-68
2021/09/28 03:48:12;;;;;;;15.37;1.83;;;;;;;10.64;100.00;101686.81;5087863;28;20028;-68
2021/09/28 03:50:38;;;;;;;16.20;2.00;;;;;;;10.64;100.00;101684.97;5089243;28;20511;-68
2021/09/28 03:53:04;;;;;;;;;;;;;;;10.55;100.00;101692.00;5074522;28;20085;-69
2021/09/28 03:55:31;;;;;;;19.60;2.58;;;;;;;10.47;100.00;101689.19;5090730;28;19940;-68
2021/09/28 03:57:57;;;;;;;6.80;1.50;;;;;;;10.37;100.00;101677.63;5091761;28;20518;-68
2021/09/28 04:00:23;;;;;;;12.50;1.77;;;;;;;10.37;100.00;101685.63;5073584;28;20039;-68
2021/09/28 04:02:49;;;;;;;21.15;2.20;;;;;;;10.38;100.00;101690.00;5091786;28;20075;-69
2021/09/28 04:05:15;;;;;;;12.18;1.55;;;;;;;10.31;100.00;101684.38;5090718;28;20093;-69
2021/09/28 04:07:40;;;;;;;12.63;2.30;;;;;;;10.26;100.00;101697.25;5090682;28;20465;-68
2021/09/28 04:10:08;;;;;;;12.93;1.80;;;;;;;10.28;100.00;101691.81;5090620;28;20114;-68
2021/09/28 04:12:34;;;;;;;9.43;2.15;;;;;;;10.24;100.00;101693.88;5091572;28;20028;-68
2021/09/28 04:15:00;;;;;;;11.23;1.75;;;;;;;10.19;100.00;101704.13;5091308;28;20036;-68
2021/09/28 04:17:26;;;;;;;;;;;;;;;10.12;100.00;101705.66;5073800;28;20911;-68
2021/09/28 04:19:51;;;;;;;;;;;;;;;10.11;100.00;101711.97;5090483;28;19920;-68
2021/09/28 04:22:18;;;;;;;10.67;1.90;;;;;;;10.02;100.00;101705.63;5090446;28;20023;-68
2021/09/28 04:24:44;;;;;;;8.88;1.33;;;;;;;9.96;100.00;101708.84;5091044;28;20556;-69
2021/09/28 04:27:10;;;;;;;9.75;1.48;;;;;;;9.91;100.00;101705.72;5090200;28;20039;-69
2021/09/28 04:29:36;;;;;;;7.28;1.45;;;;;;;9.90;100.00;101718.22;5089986;28;20036;-68
2021/09/28 04:32:01;;;;;;;9.15;1.52;;;;;;;9.84;100.00;101728.59;5091168;28;20090;-68
2021/09/28 04:34:27;;;;;;;12.02;2.30;;;;;;;9.80;100.00;101721.81;5090025;28;20477;-68
2021/09/28 04:36:52;;;;;;;10.73;1.47;;;;;;;9.70;100.00;101722.63;5091050;28;20038;-68
2021/09/28 04:39:18;;;;;;;18.27;2.33;;;;;;;9.71;100.00;101715.47;5090726;28;20074;-68
2021/09/28 04:41:43;;;;;;;11.33;1.73;;;;;;;9.69;100.00;101728.06;5091086;28;20136;-68
2021/09/28 04:44:09;;;;;;;12.43;2.03;;;;;;;9.65;100.00;101734.66;5073261;28;20115;-69
2021/09/28 04:46:34;;;;;;;9.00;1.40;;;;;;;9.66;100.00;101736.34;5090649;28;20453;-68
2021/09/28 04:49:00;;;;;;;17.58;2.10;;;;;;;9.64;100.00;101738.31;5089801;28;20035;-68
2021/09/28 04:51:25;;;;;;;12.23;1.87;;;;;;;9.63;100.00;101733.97;5090796;28;20017;-68
2021/09/28 04:53:51;;;;;;;5.03;1.27;;;;;;;9.57;100.00;101734.47;5090022;28;20837;-68
2021/09/28 04:56:16;;;;;;;14.00;2.07;;;;;;;9.51;100.00;101733.19;5090497;28;20062;-68
2021/09/28 04:58:42;;;;;;;15.18;1.73;;;;;;;9.46;100.00;101730.09;5089436;28;20123;-68
2021/09/28 05:01:07;;;;;;;9.90;1.40;;;;;;;9.47;100.00;101737.94;5089843;28;20120;-68
2021/09/28 05:03:33;;;;;;;6.70;1.55;;;;;;;9.45;100.00;101739.88;5090707;28;20036;-69
2021/09/28 05:05:58;;;;;;;10.67;1.90;;;;;;;9.44;100.00;101743.53;5090130;28;20028;-68
2021/09/28 05:08:23;;;;;;;6.87;1.43;;;;;;;9.46;100.00;101756.75;5090630;28;20526;-68
2021/09/28 05:10:49;;;;;;;17.03;2.67;;;;;;;9.45;100.00;101761.19;5089678;28;20453;-68
2021/09/28 05:13:15;;;;;;;10.02;1.63;;;;;;;9.46;100.00;101760.25;5090464;28;20131;-68
2021/09/28 05:15:40;;;;;;;5.80;1.30;;;;;;;9.43;100.00;101772.97;5090233;28;20066;-68
2021/09/28 05:18:06;;;;;;;16.17;1.57;;;;;;;9.40;100.00;101768.75;5090358;28;20036;-68
2021/09/28 05:20:32;;;;;;;9.77;1.60;;;;;;;9.42;100.00;101773.94;5072153;28;20414;-68
2021/09/28 05:22:59;;;;;;;10.82;2.25;;;;;;;9.39;100.00;101767.06;5072604;28;20047;-69
2021/09/28 05:25:26;;;;;;;;;;;;;;;9.38;100.00;101764.53;5090131;28;20036;-69
2021/09/28 05:27:51;;;;;;;11.02;2.35;;;;;;;9.36;100.00;101763.81;5092274;22;19935;-68
2021/09/28 05:30:17;;;;;;;8.80;1.87;;;;;;;9.38;100.00;101770.69;5069571;28;20036;-68
2021/09/28 05:32:42;;;;;;;10.82;2.65;;;;;;;9.45;100.00;101773.69;5069831;28;20344;-68
2021/09/28 05:35:08;;;;;;;9.70;2.40;;;;;;;9.56;100.00;101773.63;5069870;28;20047;-68
2021/09/28 05:37:34;;;;;;;12.57;2.83;;;;;;;9.61;100.00;101782.06;5069618;28;20121;-68
2021/09/28 05:39:59;;;;;;;15.87;2.30;;;;;;;9.74;100.00;101787.22;5069599;28;20028;-68
2021/09/28 05:42:25;;;;;;;13.60;2.57;;;;;;;9.71;100.00;101792.78;5069566;28;20032;-68
2021/09/28 05:44:50;;;;;;;10.07;3.30;;;;;;;9.79;100.00;101800.16;5069504;28;21085;-68
2021/09/28 05:47:15;;;;;;;10.83;2.60;;;;;;;9.86;100.00;101803.97;5051913;28;20584;-69
2021/09/28 05:49:41;;;;;;;8.07;1.40;;;;;;;9.91;100.00;101799.94;5051830;28;20038;-68
2021/09/28 05:52:11;;;;;;;4.68;1.73;;;;;;;10.08;100.00;101811.81;5069458;28;20122;-69
2021/09/28 05:54:44;;;;;;;15.57;2.65;;;;;;;10.19;100.00;101810.03;5051765;28;20040;-69
2021/09/28 05:57:11;;;;;;;12.43;2.60;;;;;;;10.33;100.00;101817.72;5068416;28;20036;-68
2021/09/28 05:59:37;;;;;;;13.00;2.95;;;;;;;10.45;100.00;101805.09;5068931;28;20044;-68
2021/09/28 06:02:02;;;;;;;11.93;1.80;;;;;;;10.63;100.00;101806.16;5069221;28;20043;-69
2021/09/28 06:04:28;;;;;;;18.00;4.13;;;;;;;10.82;100.00;101817.84;5049299;28;20017;-69
2021/09/28 06:06:54;;;;;;;11.13;2.47;;;;;;;10.95;100.00;101824.59;5055023;28;20283;-69
2021/09/28 06:09:20;;;;;;;10.98;2.03;;;;;;;11.11;100.00;101817.88;5052170;28;20608;-69
2021/09/28 06:11:45;;;;;;;22.87;3.23;;;;;;;11.22;100.00;101815.06;5051716;28;20047;-69
2021/09/28 06:14:11;;;;;;;9.57;2.00;;;;;;;11.31;100.00;101814.22;5068161;28;20051;-68
2021/09/28 06:16:36;;;;;;;8.70;2.57;;;;;;;11.43;100.00;101814.09;5051377;28;20301;-68
2021/09/28 06:19:02;;;;;;;21.20;3.27;;;;;;;11.51;100.00;101811.53;5067840;28;20274;-69
2021/09/28 06:21:27;;;;;;;13.02;3.28;;;;;;;11.86;100.00;101808.22;5067954;28;20082;-69
2021/09/28 06:23:53;;;;;;;13.23;2.10;;;;;;;12.74;100.00;101819.44;5068940;28;20360;-69
2021/09/28 06:26:20;;;;;;;17.37;2.77;;;;;;;12.74;100.00;101806.03;5051141;28;20028;-69
2021/09/28 06:28:46;;;;;;;14.07;1.88;;;;;;;13.08;100.00;101797.31;5068287;28;20028;-69
2021/09/28 06:31:12;;;;;;;9.95;1.88;;;;;;;13.51;100.00;101791.19;5051372;28;20368;-69
2021/09/28 06:33:37;;;;;;;10.03;2.20;;;;;;;13.47;100.00;101792.50;5068524;28;20029;-69
2021/09/28 06:36:03;;;;;;;10.20;2.60;;;;;;;13.92;99.60;101799.50;5067446;28;20047;-69
2021/09/28 06:38:28;;;;;;;11.02;2.20;;;;;;;13.34;96.53;101792.03;5066093;28;20032;-69
2021/09/28 06:40:53;;;;;;;8.53;2.97;;;;;;;13.46;96.63;101804.22;5065901;28;20029;-69
2021/09/28 06:43:19;;;;;;;10.15;2.25;;;;;;;13.28;97.71;101804.25;5066907;28;20097;-69
2021/09/28 06:45:45;;;;;;;9.23;2.45;;;;;;;13.76;97.45;101812.81;5065909;28;20039;-69
2021/09/28 06:48:12;;;;;;;8.20;1.63;;;;;;;14.17;94.68;101813.06;5065857;28;20075;-69
2021/09/28 06:50:37;;;;;;;8.90;2.03;;;;;;;14.53;92.26;101819.09;5067083;28;20102;-69
2021/09/28 06:53:03;;;;;;;6.70;2.10;;;;;;;14.65;91.75;101816.97;5067802;28;20032;-69
2021/09/28 06:55:28;;;;;;;7.27;2.30;;;;;;;15.01;90.60;101819.44;5066095;28;20283;-69
2021/09/28 06:57:53;;;;;;;12.97;3.97;;;;;;;15.58;89.41;101821.31;5067287;28;20406;-69
2021/09/28 07:00:19;;;;;;;6.17;2.43;;;;;;;15.85;86.99;101817.44;5066994;28;20033;-69
2021/09/28 07:02:44;;;;;;;13.45;3.20;;;;;;;16.18;85.45;101822.75;5067214;28;20486;-69
2021/09/28 07:05:11;;;;;;;9.13;2.57;;;;;;;15.95;84.31;101819.94;5066029;28;20074;-69
2021/09/28 07:07:39;;;;;;;9.93;2.33;;;;;;;16.10;84.12;101820.06;5067119;28;20074;-69
2021/09/28 07:10:07;;;;;;;13.77;4.10;;;;;;;15.66;84.33;101823.97;5065427;28;20036;-69
2021/09/28 07:12:35;;;;;;;10.48;3.90;;;;;;;15.21;86.85;101836.09;5067490;28;20059;-69
2021/09/28 07:15:02;;;;;;;10.55;3.83;;;;;;;14.44;88.96;101840.72;5066767;28;20040;-69
2021/09/28 07:17:27;;;;;;;9.35;3.42;;;;;;;14.50;90.71;101853.53;5065786;28;20049;-69
2021/09/28 07:19:53;;;;;;;6.30;3.23;;;;;;;14.43;90.19;101839.06;5065714;28;20040;-69
2021/09/28 07:22:19;;;;;;;;;;;;;;;14.23;91.08;101860.75;5067718;28;20086;-69
2021/09/28 07:24:44;;;;;;;;;;;;;;;14.06;91.53;101864.34;5068927;28;19920;-69
2021/09/28 07:27:11;;;;;;;12.73;3.83;;;;;;;13.85;93.06;101873.59;5071213;28;19997;-69
2021/09/28 07:29:37;;;;;;;10.48;5.35;;;;;;;13.60;94.59;101871.72;5053109;28;20526;-69
2021/09/28 07:32:03;;;;;;;12.23;5.40;;;;;;;13.59;95.37;101872.75;5070915;28;20040;-69
2021/09/28 07:34:31;;;;;;;15.43;7.72;;;;;;;13.35;96.73;101876.06;5069687;28;20196;-69
2021/09/28 07:36:57;;;;;;;19.83;8.38;;;;;;;13.25;97.10;101886.78;5069762;28;20037;-69
2021/09/28 07:39:22;;;;;;;14.23;7.88;;;;;;;13.14;99.01;101884.38;5069498;28;20471;-69
2021/09/28 07:41:48;;;;;;;13.38;7.88;;;;;;;12.98;100.00;101887.69;5069636;28;20119;-69
2021/09/28 07:44:14;;;;;;;14.75;8.68;;;;;;;12.88;100.00;101907.34;5069571;28;20437;-69
2021/09/28 07:46:42;;;;;;;16.08;7.55;;;;;;;13.58;100.00;101911.28;5070243;28;20056;-69
2021/09/28 07:49:07;;;;;;;15.05;6.72;;;;;;;13.93;100.00;101905.91;5052703;28;20032;-69
2021/09/28 07:51:32;;;;;;;11.87;5.63;;;;;;;14.95;95.71;101895.38;5070396;28;20033;-69
2021/09/28 07:53:58;;;;;;;12.87;5.50;;;;;;;15.29;90.25;101875.59;5069547;28;20040;-70
2021/09/28 07:56:26;;;;;;;14.20;5.55;;;;;;;14.20;91.52;101879.06;5069976;28;20318;-69
2021/09/28 07:58:51;;;;;;;11.30;7.15;;;;;;;14.16;91.59;101878.50;5070067;28;20158;-69
2021/09/28 08:01:17;;;;;;;15.57;8.67;;;;;;;13.64;93.54;101889.22;5070115;28;20047;-69
2021/09/28 08:03:44;;;;;;;16.55;8.43;;;;;;;13.51;97.96;101903.88;5070345;28;20028;-69
2021/09/28 08:06:10;;;;;;;17.25;9.63;;;;;;;14.39;94.19;101899.47;5068911;28;20039;-69
2021/09/28 08:08:35;;;;;;;13.90;7.97;;;;;;;15.20;90.47;101891.75;5070372;28;20055;-69
2021/09/28 08:11:01;;;;;;;11.87;8.73;;;;;;;15.05;88.25;101882.63;5052096;28;20317;-69
2021/09/28 08:13:26;;;;;;;11.80;8.75;;;;;;;14.92;88.73;101888.47;5070474;28;20464;-69
2021/09/28 08:15:52;;;;;;;14.17;8.00;;;;;;;15.37;87.67;101891.78;5068700;28;20480;-69
2021/09/28 08:18:18;;;;;;;14.00;8.60;;;;;;;15.77;85.23;101884.75;5052410;28;20032;-69
2021/09/28 08:20:45;;;;;;;17.30;8.13;;;;;;;16.03;83.53;101873.78;5069824;28;20123;-69
2021/09/28 08:23:12;;;;;;;13.52;8.57;;;;;;;15.47;84.60;101878.16;5069784;28;20045;-69
2021/09/28 08:31:11;;;;;;;13.77;8.23;;;;;;;15.66;85.40;101893.13;5052047;28;20029;-69
2021/09/28 08:33:38;;;;;;;11.27;7.35;;;;;;;16.48;82.91;101887.66;5069662;28;20043;-69
2021/09/28 08:36:04;;;;;;;13.73;8.20;;;;;;;16.68;79.83;101876.28;5067600;28;20025;-69
2021/09/28 08:38:29;;;;;;;;;;;;;;;16.25;81.02;101886.56;5052200;28;20489;-69
2021/09/28 08:40:56;;;;;;;12.48;7.00;;;;;;;16.50;81.86;101883.75;5051682;28;20018;-69
2021/09/28 08:43:21;;;;;;;14.27;6.22;;;;;;;17.55;77.92;101867.16;5069438;28;20480;-69
2021/09/28 08:45:47;;;;;;;12.63;8.03;;;;;;;17.73;76.53;101875.78;5069417;28;20029;-69
2021/09/28 08:48:13;;;;;;;;;;;;;;;17.89;77.29;101890.22;5069622;28;20290;-69
2021/09/28 08:50:40;;;;;;;9.18;6.25;;;;;;;18.96;73.37;101874.47;5069165;28;19912;-70
2021/09/28 08:53:08;;;;;;;8.80;5.10;;;;;;;19.49;71.35;101867.94;5069109;28;20475;-69
2021/09/28 08:55:35;;;;;;;9.57;5.63;;;;;;;19.82;69.01;101852.81;5069090;28;20315;-69
2021/09/28 08:58:11;;;;;;;8.77;5.78;;;;;;;19.85;67.59;101853.44;5051278;28;20033;-69
2021/09/28 09:00:37;;;;;;;10.48;5.50;;;;;;;17.47;76.04;101888.84;5051247;28;20037;-69
2021/09/28 09:03:02;;;;;;;8.07;5.03;;;;;;;19.09;73.30;101894.59;5069114;28;20033;-69
2021/09/28 09:05:28;;;;;;;6.88;4.25;;;;;;;19.84;70.28;101870.75;5069040;28;20033;-69
2021/09/28 09:08:14;;;;;;;7.32;5.40;;;;;;;19.28;70.32;101874.19;5069174;28;20047;-69
2021/09/28 09:10:40;;;;;;;10.45;4.75;;;;;;;20.51;67.50;101856.59;5068878;28;20038;-69
2021/09/28 09:13:06;;;;;;;;;;;;;;;20.73;66.65;101860.03;5068291;28;20050;-69
2021/09/28 09:15:34;;;;;;;12.30;5.20;;;;;;;20.94;66.29;101861.78;5068822;28;19912;-69
2021/09/28 09:18:08;;;;;;;9.88;4.80;;;;;;;20.87;64.87;101850.06;5050908;28;20055;-69
2021/09/28 09:20:42;;;;;;;11.98;5.88;;;;;;;20.15;67.38;101862.22;5068875;28;20055;-69
2021/09/28 09:23:28;;;;;;;9.52;4.55;;;;;;;21.07;65.58;101859.13;5068673;28;20041;-69
2021/09/28 09:26:05;;;;;;;7.30;5.22;;;;;;;21.33;64.59;101854.78;5068504;28;20032;-69
2021/09/28 09:28:34;;;;;;;7.57;5.30;;;;;;;21.24;65.48;101861.44;5068598;28;20139;-69
2021/09/28 09:31:29;;;;;;;10.13;5.68;;;;;;;20.93;65.18;101860.13;5068618;28;20341;-69
2021/09/28 09:34:09;;;;;;;11.30;6.45;;;;;;;19.84;67.29;101868.06;5068699;28;20082;-69
2021/09/28 09:36:37;;;;;;;7.00;5.93;;;;;;;20.65;67.33;101887.34;5068435;28;20043;-69
2021/09/28 09:39:06;;;;;;;8.52;4.68;;;;;;;21.15;65.60;101868.09;5050377;28;20024;-69
2021/09/28 09:41:33;;;;;;;7.75;6.22;;;;;;;20.52;65.22;101855.53;5067528;28;20449;-69
2021/09/28 09:44:13;;;;;;;8.65;5.55;;;;;;;21.10;64.64;101857.84;5034154;28;20047;-69
2021/09/28 09:46:39;;;;;;;7.80;5.82;;;;;;;20.81;64.55;101859.88;5068263;28;20062;-69
2021/09/28 09:49:09;;;;;;;10.93;5.63;;;;;;;20.57;65.86;101874.78;5050302;28;20067;-70
2021/09/28 09:51:52;;;;;;;8.18;4.75;;;;;;;21.75;64.06;101866.31;5050675;28;20028;-70
2021/09/28 09:54:34;;;;;;;10.60;5.45;;;;;;;22.11;63.30;101857.69;5067757;28;20028;-70
2021/09/28 09:57:04;;;;;;;8.13;4.57;;;;;;;21.95;62.48;101847.25;5068028;28;20028;-69
2021/09/28 09:59:30;;;;;;;10.18;5.68;;;;;;;21.69;63.34;101850.84;5050103;28;20040;-70
2021/09/28 10:01:56;;;;;;;7.15;6.30;;;;;;;21.25;64.10;101855.78;5033561;28;20314;-70
2021/09/28 10:04:23;;;;;;;8.32;5.38;;;;;;;21.48;65.29;101871.72;5066694;28;20380;-69
2021/09/28 10:06:50;;;;;;;7.63;5.35;;;;;;;22.04;62.15;101845.16;5067771;28;20082;-70
2021/09/28 10:09:29;;;;;;;11.25;5.90;;;;;;;22.17;62.12;101844.28;5067624;28;20028;-69
2021/09/28 10:11:57;;;;;;;5.70;3.97;;;;;;;22.77;60.97;101840.31;5067876;28;20064;-69
2021/09/28 10:14:42;;;;;;;9.60;5.20;;;;;;;21.29;63.66;101845.34;5049701;28;20372;-69
2021/09/28 10:17:28;;;;;;;12.65;5.57;;;;;;;21.93;63.28;101847.47;5067749;28;20029;-70
2021/09/28 10:20:00;;;;;;;10.52;4.88;;;;;;;22.62;61.33;101837.06;5049700;28;20139;-69
2021/09/28 10:22:35;;;;;;;11.18;5.50;;;;;;;22.69;60.53;101837.84;5033450;28;20044;-70
2021/09/28 10:25:18;;;;;;;11.40;6.63;;;;;;;22.63;61.31;101844.16;5049538;28;20036;-69
2021/09/28 10:27:44;;;;;;;9.35;5.65;;;;;;;22.64;61.26;101848.56;5049777;28;20090;-70
2021/09/28 10:30:10;;;;;;;10.85;5.80;;;;;;;22.54;62.54;101856.34;5067868;28;20028;-69
2021/09/28 10:32:46;;;;;;;8.95;5.32;;;;;;;22.38;60.82;101835.88;5067448;28;20032;-69
2021/09/28 10:35:14;;;;;;;9.20;5.40;;;;;;;22.58;61.57;101857.59;5068188;28;20422;-69
2021/09/28 10:37:42;;;;;;;12.90;5.10;;;;;;;22.93;60.92;101843.59;5068495;28;20445;-69
2021/09/28 10:40:14;;;;;;;8.40;5.18;;;;;;;22.01;62.90;101857.28;5050630;28;20358;-69
2021/09/28 10:43:00;;;;;;;9.80;6.07;;;;;;;22.26;61.82;101845.75;5034225;28;20085;-70
2021/09/28 10:45:29;;;;;;;;;;;;;;;23.06;60.16;101848.16;5068726;28;20044;-70
2021/09/28 10:48:06;;;;;;;8.13;3.90;;;;;;;22.89;60.47;101836.91;5067781;28;19956;-70
2021/09/28 10:50:35;;;;;;;8.88;3.72;;;;;;;23.05;58.76;101825.53;5033840;28;20040;-69
2021/09/28 10:53:07;;;;;;;9.32;3.40;;;;;;;23.05;60.47;101851.94;5068126;28;20033;-69
2021/09/28 10:56:06;;;;;;;8.05;3.10;;;;;;;22.81;58.88;101827.13;5049609;28;20116;-70
2021/09/28 10:58:49;;;;;;;6.80;2.90;;;;;;;22.24;60.98;101828.81;5037709;28;20373;-69
2021/09/28 11:01:14;;;;;;;5.22;2.53;;;;;;;22.75;57.69;101807.03;5067166;28;20054;-69
2021/09/28 11:03:55;;;;;;;5.10;2.70;;;;;;;23.57;56.67;101807.09;5066305;28;20035;-70
2021/09/28 11:06:44;;;;;;;5.38;2.47;;;;;;;22.96;57.03;101805.03;5066873;28;20105;-70
2021/09/28 11:09:14;;;;;;;10.35;3.42;;;;;;;23.00;57.01;101809.03;5066830;28;20370;-70
2021/09/28 11:11:40;;;;;;;9.68;3.35;;;;;;;22.85;56.90;101797.56;5067101;28;20445;-70
2021/09/28 11:14:08;;;;;;;8.43;2.53;;;;;;;23.76;55.90;101807.16;5066004;28;20041;-70
2021/09/28 11:16:47;;;;;;;8.32;2.70;;;;;;;23.26;55.74;101779.94;5066937;28;20036;-70
2021/09/28 11:19:13;;;;;;;11.13;2.58;;;;;;;23.55;56.10;101803.78;5066890;28;20389;-70
2021/09/28 11:21:44;;;;;;;8.55;2.55;;;;;;;24.09;53.79;101781.44;5066580;28;20028;-70
2021/09/28 11:24:12;;;;;;;8.13;2.75;;;;;;;23.95;53.93;101781.59;5065609;28;20059;-70
2021/09/28 11:26:42;;;;;;;5.55;2.08;;;;;;;23.99;54.67;101793.72;5049140;28;20036;-69